createdAt,value
2022-09-25T00:00:57.289Z,94985.91
2022-09-25T00:02:59.027Z,94986.41
2022-09-25T00:05:00.649Z,94987.03
2022-09-25T00:07:02.602Z,94981.47
2022-09-25T00:09:06.838Z,94979.66
2022-09-25T00:11:16.744Z,94982.81
2022-09-25T00:13:21.135Z,94981.66
2022-09-25T00:15:23.164Z,94975.09
2022-09-25T00:17:24.789Z,94984.78
2022-09-25T00:19:45.544Z,94977.03
2022-09-25T00:21:53.093Z,94972.47
2022-09-25T00:23:54.934Z,94977.88
2022-09-25T00:25:57.330Z,94973.53
2022-09-25T00:27:59.237Z,94968.59
2022-09-25T00:30:00.934Z,94974.34
2022-09-25T00:32:03.625Z,94969.72
2022-09-25T00:34:06.056Z,94970.34
2022-09-25T00:36:10.098Z,94978.31
2022-09-25T00:38:11.710Z,94977.03
2022-09-25T00:40:14.730Z,94976.25
2022-09-25T00:42:20.596Z,94965.25
2022-09-25T00:44:41.115Z,94956.88
2022-09-25T00:46:44.270Z,94962.13
2022-09-25T00:48:52.120Z,94955.47
2022-09-25T00:50:55.620Z,94957.47
2022-09-25T00:53:07.469Z,94957.69
2022-09-25T00:55:09.891Z,94967.22
2022-09-25T00:57:14.860Z,94963.31
2022-09-25T00:59:30.043Z,94965.13
2022-09-25T01:01:31.751Z,94955.44
2022-09-25T01:03:34.254Z,94957.91
2022-09-25T01:05:38.920Z,94951.88
2022-09-25T01:07:43.198Z,94947.25
2022-09-25T01:09:45.939Z,94951.28
2022-09-25T01:11:47.923Z,94952.97
2022-09-25T01:13:49.526Z,94951.50
2022-09-25T01:16:38.417Z,94946.91
2022-09-25T01:18:52.181Z,94950.38
2022-09-25T01:21:10.588Z,94953.16
2022-09-25T01:23:37.095Z,94947.91
2022-09-25T01:26:16.204Z,94951.34
2022-09-25T01:28:29.707Z,94943.16
2022-09-25T01:30:34.103Z,94937.41
2022-09-25T01:32:58.925Z,94942.13
2022-09-25T01:35:22.162Z,94953.06
2022-09-25T01:37:32.859Z,94946.44
2022-09-25T01:39:38.715Z,94950.78
2022-09-25T01:42:08.662Z,94955.22
2022-09-25T01:44:14.490Z,94949.94
2022-09-25T01:46:19.555Z,94955.84
2022-09-25T01:48:25.142Z,94956.03
2022-09-25T01:50:47.017Z,94953.31
2022-09-25T01:52:51.768Z,94964.16
2022-09-25T01:54:56.212Z,94958.63
2022-09-25T01:57:04.607Z,94961.59
2022-09-25T01:59:24.513Z,94956.50
2022-09-25T02:01:29.728Z,94960.78
2022-09-25T02:03:37.372Z,94957.34
2022-09-25T02:05:46.264Z,94951.22
2022-09-25T02:07:58.717Z,94941.34
2022-09-25T02:10:05.396Z,94938.38
2022-09-25T02:12:14.707Z,94938.69
2022-09-25T02:14:46.885Z,94941.97
2022-09-25T02:16:52.867Z,94942.66
2022-09-25T02:19:13.283Z,94939.22
2022-09-25T02:21:21.167Z,94948.56
2022-09-25T02:23:24.946Z,94950.66
2022-09-25T02:25:38.677Z,94955.06
2022-09-25T02:27:40.555Z,94957.22
2022-09-25T02:29:44.887Z,94955.94
2022-09-25T02:31:53.729Z,94964.28
2022-09-25T02:33:56.148Z,94959.66
2022-09-25T02:35:59.333Z,94951.25
2022-09-25T02:38:01.101Z,94958.63
2022-09-25T02:40:04.098Z,94959.13
2022-09-25T02:42:23.629Z,94951.78
2022-09-25T02:44:46.860Z,94945.72
2022-09-25T02:47:27.322Z,94949.16
2022-09-25T02:49:38.082Z,94957.84
2022-09-25T02:51:43.653Z,94953.06
2022-09-25T02:54:12.906Z,94951.63
2022-09-25T02:56:29.133Z,94950.13
2022-09-25T02:58:54.023Z,94950.03
2022-09-25T03:00:56.701Z,94957.31
2022-09-25T03:02:59.994Z,94951.06
2022-09-25T03:05:02.902Z,94951.50
2022-09-25T03:07:05.511Z,94947.06
2022-09-25T03:09:09.028Z,94953.81
2022-09-25T03:11:14.327Z,94943.13
2022-09-25T03:13:22.249Z,94952.03
2022-09-25T03:15:24.584Z,94940.44
2022-09-25T03:17:26.225Z,94943.25
2022-09-25T03:19:29.677Z,94945.25
2022-09-25T03:21:32.067Z,94943.72
2022-09-25T03:23:33.683Z,94939.34
2022-09-25T03:25:35.254Z,94944.56
2022-09-25T03:27:36.860Z,94943.25
2022-09-25T03:29:38.641Z,94941.19
2022-09-25T03:31:42.735Z,94945.13
2022-09-25T03:33:45.031Z,94941.84
2022-09-25T03:35:46.640Z,94940.72
2022-09-25T03:37:48.231Z,94947.63
2022-09-25T03:39:49.842Z,94947.91
2022-09-25T03:41:51.520Z,94945.66
2022-09-25T03:43:53.878Z,94940.56
2022-09-25T03:45:55.581Z,94948.28
2022-09-25T03:47:57.205Z,94943.34
2022-09-25T03:49:58.755Z,94944.59
2022-09-25T03:52:00.373Z,94948.13
2022-09-25T03:54:03.185Z,94950.47
2022-09-25T03:56:07.673Z,94953.91
2022-09-25T03:58:09.461Z,94948.34
2022-09-25T04:00:11.819Z,94956.09
2022-09-25T04:02:13.571Z,94952.44
2022-09-25T04:04:15.213Z,94951.63
2022-09-25T04:06:20.080Z,94959.03
2022-09-25T04:08:23.199Z,94956.50
2022-09-25T04:10:24.754Z,94964.63
2022-09-25T04:12:26.832Z,94958.88
2022-09-25T04:14:28.401Z,94965.06
2022-09-25T04:16:30.415Z,94960.53
2022-09-25T04:18:32.938Z,94956.88
2022-09-25T04:20:35.350Z,94955.28
2022-09-25T04:22:36.956Z,94964.22
2022-09-25T04:24:50.554Z,94968.19
2022-09-25T04:26:53.742Z,94967.72
2022-09-25T04:28:55.759Z,94964.66
2022-09-25T04:30:57.387Z,94973.03
2022-09-25T04:33:17.993Z,94969.84
2022-09-25T04:35:19.553Z,94965.41
2022-09-25T04:37:26.343Z,94965.81
2022-09-25T04:39:28.190Z,94965.50
2022-09-25T04:41:29.775Z,94971.03
2022-09-25T04:43:32.703Z,94974.34
2022-09-25T04:45:36.875Z,94963.84
2022-09-25T04:47:38.434Z,94960.28
2022-09-25T04:49:40.229Z,94977.31
2022-09-25T04:51:41.792Z,94965.41
2022-09-25T04:53:43.401Z,94960.50
2022-09-25T04:55:46.339Z,94956.06
2022-09-25T04:57:59.771Z,94967.88
2022-09-25T05:00:02.003Z,94959.44
2022-09-25T05:02:03.837Z,94971.09
2022-09-25T05:04:08.698Z,94966.38
2022-09-25T05:06:10.666Z,94968.66
2022-09-25T05:08:13.930Z,94971.34
2022-09-25T05:10:15.601Z,94971.75
2022-09-25T05:12:17.167Z,94972.22
2022-09-25T05:14:19.037Z,94970.81
2022-09-25T05:16:20.786Z,94964.13
2022-09-25T05:18:24.217Z,94959.09
2022-09-25T05:20:25.928Z,94961.72
2022-09-25T05:22:27.752Z,94950.34
2022-09-25T05:24:30.217Z,94953.34
2022-09-25T05:26:34.455Z,94950.44
2022-09-25T05:28:36.066Z,94954.53
2022-09-25T05:30:38.956Z,94954.28
2022-09-25T05:32:40.609Z,94952.81
2022-09-25T05:34:42.244Z,94947.72
2022-09-25T05:36:43.866Z,94951.00
2022-09-25T05:38:45.468Z,94943.59
2022-09-25T05:40:47.304Z,94956.66
2022-09-25T05:42:49.249Z,94955.53
2022-09-25T05:44:50.934Z,94965.41
2022-09-25T05:46:52.580Z,94964.84
2022-09-25T05:48:54.947Z,94971.28
2022-09-25T05:50:57.443Z,94968.53
2022-09-25T05:53:00.696Z,94972.75
2022-09-25T05:55:03.628Z,94971.59
2022-09-25T05:57:05.227Z,94963.50
2022-09-25T05:59:07.031Z,94969.66
2022-09-25T06:01:08.789Z,94963.41
2022-09-25T06:03:11.147Z,94968.66
2022-09-25T06:05:12.843Z,94957.81
2022-09-25T06:07:14.537Z,94963.63
2022-09-25T06:09:16.213Z,94959.53
2022-09-25T06:11:17.777Z,94956.44
2022-09-25T06:13:19.644Z,94960.78
2022-09-25T06:15:22.907Z,94960.84
2022-09-25T06:17:24.488Z,94959.88
2022-09-25T06:19:26.915Z,94960.53
2022-09-25T06:21:28.519Z,94957.72
2022-09-25T06:23:30.639Z,94960.34
2022-09-25T06:25:36.618Z,94973.31
2022-09-25T06:27:38.291Z,94979.72
2022-09-25T06:29:39.855Z,94966.13
2022-09-25T06:31:41.521Z,94965.63
2022-09-25T06:33:43.934Z,94971.19
2022-09-25T06:35:47.699Z,94966.94
2022-09-25T06:37:49.178Z,94968.72
2022-09-25T06:39:50.738Z,94971.97
2022-09-25T06:41:54.049Z,94966.84
2022-09-25T06:43:55.722Z,94968.31
2022-09-25T06:46:02.236Z,94972.94
2022-09-25T06:48:13.223Z,94966.25
2022-09-25T06:50:15.145Z,94961.28
2022-09-25T06:52:17.016Z,94959.78
2022-09-25T06:54:18.804Z,94959.06
2022-09-25T06:56:22.116Z,94962.94
2022-09-25T06:58:25.383Z,94965.84
2022-09-25T07:00:27.661Z,94960.03
2022-09-25T07:02:47.964Z,94960.31
2022-09-25T07:04:51.577Z,94972.31
2022-09-25T07:06:56.829Z,94979.91
2022-09-25T07:08:58.538Z,94984.56
2022-09-25T07:11:00.705Z,94988.88
2022-09-25T07:13:02.311Z,94990.09
2022-09-25T07:15:04.582Z,94988.44
2022-09-25T07:17:06.138Z,94999.75
2022-09-25T07:19:27.949Z,95002.53
2022-09-25T07:21:32.602Z,95005.16
2022-09-25T07:23:34.698Z,95008.19
2022-09-25T07:25:36.288Z,94996.66
2022-09-25T07:27:37.886Z,94996.63
2022-09-25T07:29:39.446Z,95004.25
2022-09-25T07:31:43.033Z,95002.75
2022-09-25T07:33:45.317Z,94999.47
2022-09-25T07:35:46.956Z,94995.50
2022-09-25T07:37:48.583Z,94984.75
2022-09-25T07:39:50.372Z,94972.47
2022-09-25T07:41:54.587Z,94966.06
2022-09-25T07:46:19.520Z,94965.34
2022-09-25T07:48:21.647Z,94957.84
2022-09-25T07:50:23.304Z,94950.63
2022-09-25T07:52:25.307Z,94950.81
2022-09-25T07:54:26.939Z,94947.63
2022-09-25T07:56:28.518Z,94938.31
2022-09-25T07:58:30.612Z,94942.03
2022-09-25T08:00:33.117Z,94936.06
2022-09-25T08:02:35.340Z,94939.28
2022-09-25T08:04:36.981Z,94936.22
2022-09-25T08:06:38.712Z,94941.59
2022-09-25T08:08:41.560Z,94947.56
2022-09-25T08:10:43.340Z,94944.88
2022-09-25T08:12:45.086Z,94943.75
2022-09-25T08:14:46.746Z,94943.28
2022-09-25T08:16:49.430Z,94938.66
2022-09-25T08:18:51.117Z,94943.41
2022-09-25T08:20:52.715Z,94928.59
2022-09-25T08:22:55.372Z,94931.44
2022-09-25T08:24:56.979Z,94927.25
2022-09-25T08:26:58.671Z,94922.88
2022-09-25T08:29:00.418Z,94918.88
2022-09-25T08:31:04.174Z,94912.03
2022-09-25T08:33:14.612Z,94917.16
2022-09-25T08:35:17.198Z,94915.13
2022-09-25T08:37:19.620Z,94908.50
2022-09-25T08:39:21.200Z,94901.69
2022-09-25T08:41:29.679Z,94898.88
2022-09-25T08:43:32.523Z,94909.56
2022-09-25T08:45:55.412Z,94911.44
2022-09-25T08:48:17.094Z,94900.19
2022-09-25T08:50:25.603Z,94908.78
2022-09-25T08:52:27.254Z,94908.06
2022-09-25T08:54:31.365Z,94906.91
2022-09-25T08:56:35.148Z,94904.97
2022-09-25T08:58:43.214Z,94907.16
2022-09-25T09:00:45.737Z,94902.00
2022-09-25T09:02:54.870Z,94904.06
2022-09-25T09:05:01.286Z,94890.97
2022-09-25T09:07:26.244Z,94884.16
2022-09-25T09:09:33.267Z,94888.31
2022-09-25T09:11:52.790Z,94883.44
2022-09-25T09:14:04.353Z,94887.50
2022-09-25T09:16:09.626Z,94882.59
2022-09-25T09:18:24.027Z,94881.56
2022-09-25T09:20:38.039Z,94869.97
2022-09-25T09:22:40.534Z,94868.53
2022-09-25T09:24:52.437Z,94869.97
2022-09-25T09:27:24.966Z,94869.38
2022-09-25T09:29:29.628Z,94873.66
2022-09-25T09:31:50.153Z,94870.41
2022-09-25T09:34:01.731Z,94867.31
2022-09-25T09:36:34.579Z,94861.63
2022-09-25T09:38:57.224Z,94862.22
2022-09-25T09:41:24.860Z,94851.56
2022-09-25T09:43:57.214Z,94857.03
2022-09-25T09:46:08.717Z,94849.94
2022-09-25T09:48:13.147Z,94850.16
2022-09-25T09:50:33.573Z,94849.34
2022-09-25T09:52:40.778Z,94842.22
2022-09-25T09:54:53.393Z,94843.03
2022-09-25T09:56:56.858Z,94839.97
2022-09-25T09:59:13.208Z,94845.50
2022-09-25T10:01:39.729Z,94843.03
2022-09-25T10:03:39.098Z,94843.63
2022-09-25T10:05:47.732Z,94840.44
2022-09-25T10:07:51.126Z,94830.53
2022-09-25T10:09:54.732Z,94835.44
2022-09-25T10:12:01.061Z,94840.53
2022-09-25T10:14:04.709Z,94828.03
2022-09-25T10:16:08.549Z,94830.69
2022-09-25T10:18:11.104Z,94832.72
2022-09-25T10:20:20.405Z,94824.53
2022-09-25T10:22:26.502Z,94820.78
2022-09-25T10:24:51.922Z,94826.25
2022-09-25T10:26:53.788Z,94828.31
2022-09-25T10:29:00.609Z,94820.44
2022-09-25T10:31:03.635Z,94812.66
2022-09-25T10:33:14.472Z,94805.38
2022-09-25T10:35:19.542Z,94807.25
2022-09-25T10:37:22.212Z,94796.72
2022-09-25T10:39:46.933Z,94797.94
2022-09-25T10:41:49.135Z,94795.72
2022-09-25T10:43:54.965Z,94797.25
2022-09-25T10:46:08.662Z,94794.16
2022-09-25T10:48:50.660Z,94796.47
2022-09-25T10:51:07.540Z,94795.28
2022-09-25T10:53:28.414Z,94800.28
2022-09-25T10:55:35.307Z,94789.34
2022-09-25T10:57:38.642Z,94793.56
2022-09-25T10:59:40.545Z,94795.88
2022-09-25T11:01:43.196Z,94788.38
2022-09-25T11:03:55.275Z,94788.03
2022-09-25T11:06:05.740Z,94778.19
2022-09-25T11:08:07.912Z,94778.56
2022-09-25T11:10:19.787Z,94774.69
2022-09-25T11:12:26.678Z,94763.03
2022-09-25T11:14:33.317Z,94763.38
2022-09-25T11:16:48.082Z,94762.78
2022-09-25T11:18:51.926Z,94764.28
2022-09-25T11:21:04.315Z,94764.72
2022-09-25T11:23:16.064Z,94760.25
2022-09-25T11:25:23.373Z,94758.94
2022-09-25T11:27:33.081Z,94756.13
2022-09-25T11:29:44.325Z,94759.88
2022-09-25T11:31:58.889Z,94764.25
2022-09-25T11:34:19.300Z,94755.59
2022-09-25T11:36:27.770Z,94753.44
2022-09-25T11:38:52.927Z,94751.03
2022-09-25T11:41:16.089Z,94730.44
2022-09-25T11:43:47.016Z,94733.34
2022-09-25T11:45:53.605Z,94731.19
2022-09-25T11:48:00.123Z,94735.31
2022-09-25T11:50:02.192Z,94728.25
2022-09-25T11:52:04.177Z,94722.38
2022-09-25T11:54:34.851Z,94726.59
2022-09-25T11:56:50.195Z,94711.41
2022-09-25T11:59:11.068Z,94713.88
2022-09-25T12:01:24.959Z,94714.38
2022-09-25T12:03:35.332Z,94708.94
2022-09-25T12:05:42.865Z,94705.44
2022-09-25T12:07:56.839Z,94701.38
2022-09-25T12:10:16.289Z,94701.84
2022-09-25T12:12:41.667Z,94695.53
2022-09-25T12:15:01.600Z,94695.19
2022-09-25T12:17:32.617Z,94697.47
2022-09-25T12:19:53.022Z,94699.13
2022-09-25T12:22:01.541Z,94689.25
2022-09-25T12:24:28.114Z,94680.13
2022-09-25T12:26:48.372Z,94668.97
2022-09-25T12:29:20.980Z,94678.25
2022-09-25T12:31:34.466Z,94680.50
2022-09-25T12:33:52.559Z,94680.47
2022-09-25T12:36:00.020Z,94671.31
2022-09-25T12:38:19.258Z,94678.03
2022-09-25T12:40:29.547Z,94679.56
2022-09-25T12:42:46.511Z,94674.09
2022-09-25T12:45:26.340Z,94668.75
2022-09-25T12:47:46.645Z,94665.28
2022-09-25T12:50:14.211Z,94646.59
2022-09-25T12:52:17.583Z,94657.94
2022-09-25T12:54:35.831Z,94648.88
2022-09-25T12:56:57.417Z,94649.94
2022-09-25T12:59:09.824Z,94649.13
2022-09-25T13:01:21.939Z,94648.41
2022-09-25T13:03:26.773Z,94641.56
2022-09-25T13:05:44.507Z,94630.97
2022-09-25T13:07:53.151Z,94635.34
2022-09-25T13:09:54.862Z,94614.38
2022-09-25T13:12:03.166Z,94610.00
2022-09-25T13:14:06.091Z,94612.63
2022-09-25T13:16:07.735Z,94612.53
2022-09-25T13:18:16.483Z,94609.88
2022-09-25T13:20:27.523Z,94607.41
2022-09-25T13:22:32.275Z,94612.13
2022-09-25T13:24:53.014Z,94607.13
2022-09-25T13:26:55.896Z,94609.09
2022-09-25T13:29:28.064Z,94613.50
2022-09-25T13:31:32.290Z,94604.69
2022-09-25T13:33:47.942Z,94601.94
2022-09-25T13:35:49.545Z,94601.13
2022-09-25T13:37:54.334Z,94608.31
2022-09-25T13:40:14.950Z,94596.91
2022-09-25T13:42:29.834Z,94602.81
2022-09-25T13:44:43.650Z,94597.88
2022-09-25T13:46:45.209Z,94584.56
2022-09-25T13:48:47.802Z,94594.28
2022-09-25T13:50:51.601Z,94592.78
2022-09-25T13:53:20.814Z,94580.88
2022-09-25T13:55:24.049Z,94585.75
2022-09-25T13:57:59.920Z,94577.84
2022-09-25T14:00:06.244Z,94589.53
2022-09-25T14:02:34.967Z,94581.69
2022-09-25T14:04:37.776Z,94580.50
2022-09-25T14:06:41.636Z,94577.63
2022-09-25T14:08:44.083Z,94580.00
2022-09-25T14:10:51.804Z,94581.38
2022-09-25T14:12:54.177Z,94579.50
2022-09-25T14:15:07.427Z,94576.75
2022-09-25T14:17:15.992Z,94586.63
2022-09-25T14:19:27.724Z,94582.88
2022-09-25T14:21:29.876Z,94586.13
2022-09-25T14:23:33.421Z,94571.25
2022-09-25T14:25:40.596Z,94569.97
2022-09-25T14:27:42.170Z,94563.97
2022-09-25T14:29:43.736Z,94572.09
2022-09-25T14:32:25.858Z,94568.69
2022-09-25T14:35:01.684Z,94568.78
2022-09-25T14:37:14.279Z,94574.75
2022-09-25T14:39:37.422Z,94570.16
2022-09-25T14:42:19.661Z,94575.50
2022-09-25T14:44:45.734Z,94572.09
2022-09-25T14:46:50.871Z,94573.41
2022-09-25T14:49:28.748Z,94569.38
2022-09-25T14:51:41.829Z,94567.88
2022-09-25T14:53:46.694Z,94565.88
2022-09-25T14:55:51.166Z,94570.22
2022-09-25T14:57:52.967Z,94570.75
2022-09-25T14:59:57.940Z,94568.09
2022-09-25T15:02:02.417Z,94583.38
2022-09-25T15:04:06.307Z,94575.50
2022-09-25T15:06:11.472Z,94582.69
2022-09-25T15:08:36.170Z,94579.44
2022-09-25T15:10:39.029Z,94581.69
2022-09-25T15:12:45.777Z,94585.28
2022-09-25T15:15:03.184Z,94582.19
2022-09-25T15:17:22.221Z,94583.72
2022-09-25T15:19:31.249Z,94576.31
2022-09-25T15:21:34.502Z,94577.22
2022-09-25T15:23:38.633Z,94581.16
2022-09-25T15:25:43.580Z,94582.66
2022-09-25T15:27:45.448Z,94581.50
2022-09-25T15:29:47.836Z,94582.13
2022-09-25T15:31:51.335Z,94576.66
2022-09-25T15:34:12.811Z,94568.75
2022-09-25T15:36:23.778Z,94569.69
2022-09-25T15:38:44.547Z,94569.00
2022-09-25T15:40:55.513Z,94566.78
2022-09-25T15:42:57.625Z,94565.28
2022-09-25T15:45:03.653Z,94571.06
2022-09-25T15:47:05.682Z,94571.31
2022-09-25T15:49:07.910Z,94570.59
2022-09-25T15:51:19.535Z,94566.78
2022-09-25T15:53:28.256Z,94570.75
2022-09-25T15:55:31.333Z,94574.56
2022-09-25T15:57:33.360Z,94569.25
2022-09-25T15:59:59.561Z,94574.69
2022-09-25T16:02:34.340Z,94568.63
2022-09-25T16:04:49.377Z,94568.72
2022-09-25T16:06:51.237Z,94567.88
2022-09-25T16:09:08.846Z,94563.44
2022-09-25T16:11:10.406Z,94565.34
2022-09-25T16:13:23.242Z,94569.97
2022-09-25T16:15:27.772Z,94568.00
2022-09-25T16:17:35.621Z,94569.91
2022-09-25T16:19:37.301Z,94578.81
2022-09-25T16:21:40.230Z,94569.50
2022-09-25T16:23:43.134Z,94567.53
2022-09-25T16:25:45.117Z,94583.31
2022-09-25T16:27:47.087Z,94575.44
2022-09-25T16:29:48.771Z,94578.16
2022-09-25T16:31:54.318Z,94578.47
2022-09-25T16:33:57.484Z,94579.13
2022-09-25T16:36:17.038Z,94584.06
2022-09-25T16:38:38.245Z,94581.50
2022-09-25T16:40:40.200Z,94596.25
2022-09-25T16:42:42.387Z,94586.56
2022-09-25T16:44:47.193Z,94590.69
2022-09-25T16:47:18.926Z,94593.63
2022-09-25T16:49:20.475Z,94596.16
2022-09-25T16:51:23.234Z,94600.28
2022-09-25T16:53:26.910Z,94596.88
2022-09-25T16:55:33.315Z,94587.28
2022-09-25T16:57:35.434Z,94593.25
2022-09-25T16:59:37.034Z,94608.81
2022-09-25T17:01:39.709Z,94604.97
2022-09-25T17:03:50.912Z,94611.97
2022-09-25T17:05:54.571Z,94605.06
2022-09-25T17:08:14.924Z,94605.06
2022-09-25T17:10:19.462Z,94614.50
2022-09-25T17:12:24.593Z,94612.06
2022-09-25T17:14:27.668Z,94618.88
2022-09-25T17:16:31.094Z,94620.28
2022-09-25T17:18:32.847Z,94614.38
2022-09-25T17:20:35.603Z,94621.31
2022-09-25T17:22:37.293Z,94620.09
2022-09-25T17:24:38.978Z,94623.34
2022-09-25T17:26:40.779Z,94623.59
2022-09-25T17:28:42.706Z,94616.84
2022-09-25T17:30:45.311Z,94612.56
2022-09-25T17:32:46.988Z,94605.63
2022-09-25T17:34:48.817Z,94605.63
2022-09-25T17:36:51.110Z,94609.72
2022-09-25T17:38:53.212Z,94613.19
2022-09-25T17:41:00.493Z,94613.19
2022-09-25T17:43:04.843Z,94616.25
2022-09-25T17:45:37.144Z,94619.28
2022-09-25T17:47:38.834Z,94622.59
2022-09-25T17:49:41.411Z,94619.53
2022-09-25T17:51:43.320Z,94628.75
2022-09-25T17:53:45.867Z,94625.50
2022-09-25T17:55:53.186Z,94630.41
2022-09-25T17:57:55.528Z,94634.66
2022-09-25T17:59:57.306Z,94641.63
2022-09-25T18:01:59.768Z,94647.13
2022-09-25T18:04:03.186Z,94650.19
2022-09-25T18:06:05.443Z,94641.22
2022-09-25T18:08:07.282Z,94642.84
2022-09-25T18:10:09.590Z,94641.22
2022-09-25T18:12:11.269Z,94646.75
2022-09-25T18:14:14.485Z,94646.75
2022-09-25T18:16:19.769Z,94646.13
2022-09-25T18:18:21.755Z,94638.41
2022-09-25T18:20:42.676Z,94641.06
2022-09-25T18:22:44.618Z,94649.22
2022-09-25T18:24:56.948Z,94642.72
2022-09-25T18:26:59.413Z,94647.41
2022-09-25T18:29:00.987Z,94639.88
2022-09-25T18:31:02.624Z,94640.09
2022-09-25T18:33:04.545Z,94649.31
2022-09-25T18:35:07.450Z,94653.41
2022-09-25T18:37:09.542Z,94650.53
2022-09-25T18:39:13.850Z,94638.56
2022-09-25T18:41:19.222Z,94641.06
2022-09-25T18:43:21.145Z,94638.84
2022-09-25T18:45:22.880Z,94640.47
2022-09-25T18:47:24.901Z,94639.25
2022-09-25T18:49:26.518Z,94648.84
2022-09-25T18:51:28.178Z,94653.13
2022-09-25T18:53:29.876Z,94663.53
2022-09-25T18:55:31.510Z,94659.06
2022-09-25T18:57:37.356Z,94652.16
2022-09-25T18:59:42.018Z,94657.44
2022-09-25T19:01:44.061Z,94654.19
2022-09-25T19:03:51.869Z,94654.59
2022-09-25T19:06:01.473Z,94656.00
2022-09-25T19:08:04.924Z,94659.09
2022-09-25T19:10:09.560Z,94659.13
2022-09-25T19:12:17.124Z,94666.47
2022-09-25T19:14:19.948Z,94661.13
2022-09-25T19:16:22.004Z,94660.91
2022-09-25T19:18:23.859Z,94650.31
2022-09-25T19:20:25.576Z,94650.13
2022-09-25T19:22:27.245Z,94648.47
2022-09-25T19:24:30.758Z,94651.94
2022-09-25T19:26:32.323Z,94647.69
2022-09-25T19:28:34.981Z,94648.91
2022-09-25T19:30:36.730Z,94642.78
2022-09-25T19:32:38.300Z,94648.28
2022-09-25T19:34:40.364Z,94654.59
2022-09-25T19:36:42.011Z,94653.16
2022-09-25T19:38:43.703Z,94653.59
2022-09-25T19:40:45.409Z,94658.88
2022-09-25T19:42:47.748Z,94653.59
2022-09-25T19:44:49.493Z,94659.06
2022-09-25T19:46:51.527Z,94653.34
2022-09-25T19:48:53.155Z,94649.63
2022-09-25T19:50:54.903Z,94644.53
2022-09-25T19:52:56.484Z,94650.44
2022-09-25T19:54:58.053Z,94657.38
2022-09-25T19:57:00.326Z,94660.81
2022-09-25T19:59:05.708Z,94663.47
2022-09-25T20:01:10.321Z,94660.41
2022-09-25T20:03:12.071Z,94650.41
2022-09-25T20:05:13.809Z,94656.53
2022-09-25T20:07:16.411Z,94651.44
2022-09-25T20:09:18.272Z,94658.75
2022-09-25T20:11:22.163Z,94661.13
2022-09-25T20:13:24.233Z,94658.47
2022-09-25T20:15:26.333Z,94656.66
2022-09-25T20:17:28.008Z,94670.72
2022-09-25T20:19:29.636Z,94676.19
2022-09-25T20:21:33.552Z,94664.19
2022-09-25T20:23:35.906Z,94659.06
2022-09-25T20:25:37.643Z,94651.13
2022-09-25T20:27:39.292Z,94660.50
2022-09-25T20:29:40.887Z,94666.00
2022-09-25T20:31:44.276Z,94658.25
2022-09-25T20:33:45.845Z,94657.22
2022-09-25T20:35:47.378Z,94652.91
2022-09-25T20:37:48.993Z,94658.38
2022-09-25T20:39:50.711Z,94654.72
2022-09-25T20:41:52.352Z,94647.19
2022-09-25T20:43:56.022Z,94649.78
2022-09-25T20:45:59.349Z,94651.00
2022-09-25T20:48:01.561Z,94640.00
2022-09-25T20:50:05.197Z,94649.34
2022-09-25T20:52:06.765Z,94646.88
2022-09-25T20:54:10.055Z,94650.75
2022-09-25T20:56:13.969Z,94661.16
2022-09-25T20:58:15.556Z,94655.50
2022-09-25T21:00:19.387Z,94654.28
2022-09-25T21:02:21.325Z,94660.38
2022-09-25T21:04:23.102Z,94656.47
2022-09-25T21:06:27.298Z,94655.31
2022-09-25T21:08:29.974Z,94643.72
2022-09-25T21:10:36.186Z,94649.22
2022-09-25T21:12:37.775Z,94658.81
2022-09-25T21:14:39.477Z,94648.69
2022-09-25T21:16:41.156Z,94647.22
2022-09-25T21:18:43.235Z,94643.50
2022-09-25T21:20:45.121Z,94642.47
2022-09-25T21:22:47.647Z,94642.56
2022-09-25T21:24:50.122Z,94646.59
2022-09-25T21:26:51.837Z,94642.16
2022-09-25T21:28:55.121Z,94639.56
2022-09-25T21:31:01.895Z,94643.50
2022-09-25T21:33:03.644Z,94638.44
2022-09-25T21:35:05.547Z,94643.34
2022-09-25T21:37:07.125Z,94634.03
2022-09-25T21:39:09.066Z,94634.03
2022-09-25T21:41:13.213Z,94628.94
2022-09-25T21:43:15.212Z,94623.47
2022-09-25T21:45:16.867Z,94613.72
2022-09-25T21:47:19.155Z,94605.16
2022-09-25T21:49:21.764Z,94607.00
2022-09-25T21:51:26.445Z,94602.47
2022-09-25T21:53:28.601Z,94594.13
2022-09-25T21:55:30.271Z,94594.47
2022-09-25T21:57:31.962Z,94601.31
2022-09-25T21:59:33.607Z,94608.28
2022-09-25T22:01:36.684Z,94608.47
2022-09-25T22:03:40.372Z,94603.31
2022-09-25T22:05:42.443Z,94605.09
2022-09-25T22:07:44.202Z,94602.50
2022-09-25T22:09:45.923Z,94606.59
2022-09-25T22:11:48.408Z,94609.28
2022-09-25T22:13:51.354Z,94604.56
2022-09-25T22:16:01.055Z,94605.38
2022-09-25T22:18:02.622Z,94605.03
2022-09-25T22:20:05.658Z,94598.47
2022-09-25T22:22:07.489Z,94604.88
2022-09-25T22:24:09.953Z,94610.53
2022-09-25T22:26:13.330Z,94597.97
2022-09-25T22:28:14.960Z,94605.66
2022-09-25T22:30:16.630Z,94620.78
2022-09-25T22:32:18.275Z,94624.41
2022-09-25T22:34:23.297Z,94631.13
2022-09-25T22:36:26.088Z,94627.09
2022-09-25T22:38:28.971Z,94624.75
2022-09-25T22:40:30.757Z,94626.81
2022-09-25T22:42:32.652Z,94627.22
2022-09-25T22:44:34.228Z,94632.78
2022-09-25T22:46:36.116Z,94630.97
2022-09-25T22:48:38.771Z,94622.22
2022-09-25T22:50:40.382Z,94626.13
2022-09-25T22:52:42.056Z,94626.13
2022-09-25T22:54:43.866Z,94627.50
2022-09-25T22:56:45.467Z,94618.97
2022-09-25T22:58:52.298Z,94615.31
2022-09-25T23:00:54.007Z,94616.38
2022-09-25T23:02:55.741Z,94616.19
2022-09-25T23:04:58.882Z,94610.53
2022-09-25T23:07:03.232Z,94608.91
2022-09-25T23:09:07.515Z,94609.09
2022-09-25T23:11:09.322Z,94621.28
2022-09-25T23:13:12.220Z,94622.81
2022-09-25T23:15:13.849Z,94625.50
2022-09-25T23:17:15.458Z,94616.44
2022-09-25T23:19:17.390Z,94616.81
2022-09-25T23:21:19.221Z,94611.97
2022-09-25T23:23:21.810Z,94602.50
2022-09-25T23:25:23.657Z,94609.66
2022-09-25T23:27:25.231Z,94610.94
2022-09-25T23:29:27.054Z,94609.66
2022-09-25T23:31:30.422Z,94608.34
2022-09-25T23:33:33.540Z,94610.94
2022-09-25T23:35:35.558Z,94617.25
2022-09-25T23:37:37.233Z,94616.06
2022-09-25T23:39:39.077Z,94609.88
2022-09-25T23:41:40.796Z,94599.88
2022-09-25T23:43:42.913Z,94603.13
2022-09-25T23:45:44.529Z,94606.34
2022-09-25T23:47:46.535Z,94612.16
2022-09-25T23:49:48.097Z,94608.59
2022-09-25T23:51:50.028Z,94606.06
2022-09-25T23:53:52.004Z,94608.41
2022-09-25T23:55:53.739Z,94605.03
2022-09-25T23:57:55.731Z,94608.16
2022-09-25T23:59:57.813Z,94615.28
